sensor_id;sensor_type;location;lat;lon;timestamp;P1;durP1;ratioP1;P2;durP2;ratioP2
76826;SDS011;65788;52.284;20.890;2024-01-15T00:00:03;7.80;;;4.50;;
76826;SDS011;65788;52.284;20.890;2024-01-15T00:01:42;7.80;;;4.60;;
76826;SDS011;65788;52.284;20.890;2024-01-15T00:03:19;7.20;;;3.80;;
76826;SDS011;65788;52.284;20.890;2024-01-15T00:04:56;8.80;;;4.60;;
76826;SDS011;65788;52.284;20.890;2024-01-15T00:06:35;8.50;;;5.00;;
76826;SDS011;65788;52.284;20.890;2024-01-15T00:08:12;8.00;;;4.70;;
76826;SDS011;65788;52.284;20.890;2024-01-15T00:09:52;6.90;;;3.80;;
76826;SDS011;65788;52.284;20.890;2024-01-15T00:11:31;8.30;;;4.10;;
76826;SDS011;65788;52.284;20.890;2024-01-15T00:13:09;7.60;;;4.10;;
76826;SDS011;65788;52.284;20.890;2024-01-15T00:14:47;6.80;;;4.10;;
76826;SDS011;65788;52.284;20.890;2024-01-15T00:16:24;6.80;;;4.40;;
76826;SDS011;65788;52.284;20.890;2024-01-15T00:18:02;8.00;;;4.00;;
76826;SDS011;65788;52.284;20.890;2024-01-15T00:19:42;7.50;;;4.30;;
76826;SDS011;65788;52.284;20.890;2024-01-15T00:21:20;7.10;;;4.40;;
76826;SDS011;65788;52.284;20.890;2024-01-15T00:22:56;7.30;;;3.90;;
76826;SDS011;65788;52.284;20.890;2024-01-15T00:24:33;6.80;;;4.20;;
76826;SDS011;65788;52.284;20.890;2024-01-15T00:26:10;7.20;;;4.50;;
76826;SDS011;65788;52.284;20.890;2024-01-15T00:27:46;8.20;;;4.10;;
76826;SDS011;65788;52.284;20.890;2024-01-15T00:29:24;6.40;;;4.10;;
76826;SDS011;65788;52.284;20.890;2024-01-15T00:31:06;6.70;;;4.00;;
76826;SDS011;65788;52.284;20.890;2024-01-15T00:32:43;6.70;;;4.20;;
76826;SDS011;65788;52.284;20.890;2024-01-15T00:34:21;6.60;;;3.80;;
76826;SDS011;65788;52.284;20.890;2024-01-15T00:35:59;7.50;;;4.50;;
76826;SDS011;65788;52.284;20.890;2024-01-15T00:37:39;8.10;;;4.60;;
76826;SDS011;65788;52.284;20.890;2024-01-15T00:39:19;6.50;;;4.20;;
76826;SDS011;65788;52.284;20.890;2024-01-15T00:40:55;6.50;;;4.10;;
76826;SDS011;65788;52.284;20.890;2024-01-15T00:42:32;9.10;;;4.30;;
76826;SDS011;65788;52.284;20.890;2024-01-15T00:44:11;7.80;;;4.30;;
76826;SDS011;65788;52.284;20.890;2024-01-15T00:45:48;7.50;;;4.20;;
76826;SDS011;65788;52.284;20.890;2024-01-15T00:47:28;8.90;;;4.40;;
76826;SDS011;65788;52.284;20.890;2024-01-15T00:49:06;6.20;;;3.90;;
76826;SDS011;65788;52.284;20.890;2024-01-15T00:50:46;7.50;;;4.30;;
76826;SDS011;65788;52.284;20.890;2024-01-15T00:52:23;7.40;;;3.90;;
76826;SDS011;65788;52.284;20.890;2024-01-15T00:54:04;7.20;;;4.10;;
76826;SDS011;65788;52.284;20.890;2024-01-15T00:55:41;7.70;;;3.90;;
76826;SDS011;65788;52.284;20.890;2024-01-15T00:57:18;8.00;;;4.30;;
76826;SDS011;65788;52.284;20.890;2024-01-15T00:58:55;6.40;;;4.20;;
76826;SDS011;65788;52.284;20.890;2024-01-15T01:00:33;8.00;;;4.50;;
76826;SDS011;65788;52.284;20.890;2024-01-15T01:02:11;6.40;;;3.70;;
76826;SDS011;65788;52.284;20.890;2024-01-15T01:03:50;7.20;;;4.60;;
76826;SDS011;65788;52.284;20.890;2024-01-15T01:05:28;8.70;;;3.70;;
76826;SDS011;65788;52.284;20.890;2024-01-15T01:07:06;7.20;;;4.00;;
76826;SDS011;65788;52.284;20.890;2024-01-15T01:08:46;5.50;;;3.50;;
76826;SDS011;65788;52.284;20.890;2024-01-15T01:10:24;6.70;;;4.20;;
76826;SDS011;65788;52.284;20.890;2024-01-15T01:12:02;6.70;;;4.00;;
76826;SDS011;65788;52.284;20.890;2024-01-15T01:13:41;5.80;;;3.80;;
76826;SDS011;65788;52.284;20.890;2024-01-15T01:15:20;6.60;;;3.70;;
76826;SDS011;65788;52.284;20.890;2024-01-15T01:16:58;6.00;;;3.80;;
76826;SDS011;65788;52.284;20.890;2024-01-15T01:18:36;6.20;;;3.60;;
76826;SDS011;65788;52.284;20.890;2024-01-15T01:20:15;6.70;;;4.20;;
76826;SDS011;65788;52.284;20.890;2024-01-15T01:23:32;7.20;;;4.10;;
76826;SDS011;65788;52.284;20.890;2024-01-15T01:25:13;9.50;;;4.20;;
76826;SDS011;65788;52.284;20.890;2024-01-15T01:26:52;6.00;;;3.90;;
76826;SDS011;65788;52.284;20.890;2024-01-15T01:28:28;6.10;;;3.60;;
76826;SDS011;65788;52.284;20.890;2024-01-15T01:30:09;6.90;;;4.30;;
76826;SDS011;65788;52.284;20.890;2024-01-15T01:31:46;5.80;;;3.70;;
76826;SDS011;65788;52.284;20.890;2024-01-15T01:33:25;5.70;;;3.70;;
76826;SDS011;65788;52.284;20.890;2024-01-15T01:35:03;6.50;;;3.80;;
76826;SDS011;65788;52.284;20.890;2024-01-15T01:36:44;7.10;;;4.00;;
76826;SDS011;65788;52.284;20.890;2024-01-15T01:38:22;5.90;;;3.90;;
76826;SDS011;65788;52.284;20.890;2024-01-15T01:40:01;6.80;;;4.00;;
76826;SDS011;65788;52.284;20.890;2024-01-15T01:41:38;6.10;;;4.10;;
76826;SDS011;65788;52.284;20.890;2024-01-15T01:43:17;6.10;;;3.80;;
76826;SDS011;65788;52.284;20.890;2024-01-15T01:44:54;7.30;;;4.30;;
76826;SDS011;65788;52.284;20.890;2024-01-15T01:46:38;6.10;;;3.70;;
76826;SDS011;65788;52.284;20.890;2024-01-15T01:48:25;5.50;;;3.50;;
76826;SDS011;65788;52.284;20.890;2024-01-15T01:50:02;6.80;;;3.90;;
76826;SDS011;65788;52.284;20.890;2024-01-15T01:51:44;6.70;;;3.80;;
76826;SDS011;65788;52.284;20.890;2024-01-15T01:53:22;6.30;;;3.20;;
76826;SDS011;65788;52.284;20.890;2024-01-15T01:55:02;8.90;;;3.90;;
76826;SDS011;65788;52.284;20.890;2024-01-15T01:56:38;6.90;;;3.80;;
76826;SDS011;65788;52.284;20.890;2024-01-15T01:58:17;6.40;;;3.70;;
76826;SDS011;65788;52.284;20.890;2024-01-15T01:59:55;6.00;;;3.80;;
76826;SDS011;65788;52.284;20.890;2024-01-15T02:01:42;5.70;;;3.40;;
76826;SDS011;65788;52.284;20.890;2024-01-15T02:03:30;6.40;;;3.60;;
76826;SDS011;65788;52.284;20.890;2024-01-15T02:05:15;6.20;;;4.10;;
76826;SDS011;65788;52.284;20.890;2024-01-15T02:06:55;5.60;;;3.40;;
76826;SDS011;65788;52.284;20.890;2024-01-15T02:08:33;5.90;;;3.80;;
76826;SDS011;65788;52.284;20.890;2024-01-15T02:10:11;5.80;;;3.50;;
76826;SDS011;65788;52.284;20.890;2024-01-15T02:11:47;8.20;;;3.90;;
76826;SDS011;65788;52.284;20.890;2024-01-15T02:13:25;5.30;;;3.40;;
76826;SDS011;65788;52.284;20.890;2024-01-15T02:15:03;4.80;;;3.40;;
76826;SDS011;65788;52.284;20.890;2024-01-15T02:16:44;6.40;;;3.50;;
76826;SDS011;65788;52.284;20.890;2024-01-15T02:18:25;6.90;;;4.00;;
76826;SDS011;65788;52.284;20.890;2024-01-15T02:20:02;6.80;;;3.80;;
76826;SDS011;65788;52.284;20.890;2024-01-15T02:21:40;6.80;;;3.80;;
76826;SDS011;65788;52.284;20.890;2024-01-15T02:23:18;5.50;;;3.70;;
76826;SDS011;65788;52.284;20.890;2024-01-15T02:24:58;6.80;;;3.30;;
76826;SDS011;65788;52.284;20.890;2024-01-15T02:26:38;5.10;;;3.20;;
76826;SDS011;65788;52.284;20.890;2024-01-15T02:28:16;7.20;;;3.80;;
76826;SDS011;65788;52.284;20.890;2024-01-15T02:29:53;5.60;;;3.40;;
76826;SDS011;65788;52.284;20.890;2024-01-15T02:31:39;5.30;;;3.20;;
76826;SDS011;65788;52.284;20.890;2024-01-15T02:33:17;5.80;;;3.70;;
76826;SDS011;65788;52.284;20.890;2024-01-15T02:34:55;6.10;;;3.90;;
76826;SDS011;65788;52.284;20.890;2024-01-15T02:36:34;6.20;;;3.40;;
76826;SDS011;65788;52.284;20.890;2024-01-15T02:38:12;5.40;;;3.50;;
76826;SDS011;65788;52.284;20.890;2024-01-15T02:41:28;5.80;;;3.60;;
76826;SDS011;65788;52.284;20.890;2024-01-15T02:43:06;6.40;;;3.60;;
76826;SDS011;65788;52.284;20.890;2024-01-15T02:44:44;4.80;;;3.40;;
76826;SDS011;65788;52.284;20.890;2024-01-15T02:46:21;6.30;;;3.50;;
76826;SDS011;65788;52.284;20.890;2024-01-15T02:47:58;4.40;;;2.90;;
76826;SDS011;65788;52.284;20.890;2024-01-15T02:49:38;5.40;;;3.60;;
76826;SDS011;65788;52.284;20.890;2024-01-15T02:51:15;4.90;;;3.10;;
76826;SDS011;65788;52.284;20.890;2024-01-15T02:52:56;5.40;;;3.50;;
76826;SDS011;65788;52.284;20.890;2024-01-15T02:54:34;6.00;;;3.60;;
76826;SDS011;65788;52.284;20.890;2024-01-15T02:56:11;5.40;;;3.40;;
76826;SDS011;65788;52.284;20.890;2024-01-15T02:57:55;5.00;;;3.40;;
76826;SDS011;65788;52.284;20.890;2024-01-15T02:59:33;6.70;;;4.00;;
76826;SDS011;65788;52.284;20.890;2024-01-15T03:01:10;5.50;;;3.50;;
76826;SDS011;65788;52.284;20.890;2024-01-15T03:02:49;6.20;;;3.60;;
76826;SDS011;65788;52.284;20.890;2024-01-15T03:04:31;5.10;;;3.40;;
76826;SDS011;65788;52.284;20.890;2024-01-15T03:06:11;6.10;;;3.80;;
76826;SDS011;65788;52.284;20.890;2024-01-15T03:07:48;6.10;;;4.20;;
76826;SDS011;65788;52.284;20.890;2024-01-15T03:09:27;6.40;;;4.00;;
76826;SDS011;65788;52.284;20.890;2024-01-15T03:11:05;6.00;;;3.80;;
76826;SDS011;65788;52.284;20.890;2024-01-15T03:12:43;6.80;;;4.00;;
76826;SDS011;65788;52.284;20.890;2024-01-15T03:14:20;6.10;;;3.70;;
76826;SDS011;65788;52.284;20.890;2024-01-15T03:15:58;5.70;;;3.60;;
76826;SDS011;65788;52.284;20.890;2024-01-15T03:17:36;5.10;;;3.20;;
76826;SDS011;65788;52.284;20.890;2024-01-15T03:19:12;5.40;;;3.70;;
76826;SDS011;65788;52.284;20.890;2024-01-15T03:20:53;6.10;;;3.60;;
76826;SDS011;65788;52.284;20.890;2024-01-15T03:22:29;5.00;;;3.50;;
76826;SDS011;65788;52.284;20.890;2024-01-15T03:24:08;5.20;;;3.40;;
76826;SDS011;65788;52.284;20.890;2024-01-15T03:25:46;5.40;;;3.50;;
76826;SDS011;65788;52.284;20.890;2024-01-15T03:27:24;5.30;;;3.60;;
76826;SDS011;65788;52.284;20.890;2024-01-15T03:29:03;6.10;;;3.50;;
76826;SDS011;65788;52.284;20.890;2024-01-15T03:30:40;5.50;;;3.70;;
76826;SDS011;65788;52.284;20.890;2024-01-15T03:32:18;6.30;;;3.60;;
76826;SDS011;65788;52.284;20.890;2024-01-15T03:33:57;6.10;;;3.50;;
76826;SDS011;65788;52.284;20.890;2024-01-15T03:35:35;6.10;;;3.50;;
76826;SDS011;65788;52.284;20.890;2024-01-15T03:37:12;5.70;;;3.50;;
76826;SDS011;65788;52.284;20.890;2024-01-15T03:40:29;5.70;;;3.70;;
76826;SDS011;65788;52.284;20.890;2024-01-15T03:42:08;7.10;;;3.80;;
76826;SDS011;65788;52.284;20.890;2024-01-15T03:43:45;4.60;;;3.10;;
76826;SDS011;65788;52.284;20.890;2024-01-15T03:45:23;5.70;;;3.40;;
76826;SDS011;65788;52.284;20.890;2024-01-15T03:47:02;5.30;;;3.50;;
76826;SDS011;65788;52.284;20.890;2024-01-15T03:48:40;5.70;;;3.90;;
76826;SDS011;65788;52.284;20.890;2024-01-15T03:50:20;6.30;;;3.50;;
76826;SDS011;65788;52.284;20.890;2024-01-15T03:52:00;6.70;;;3.50;;
76826;SDS011;65788;52.284;20.890;2024-01-15T03:53:38;5.30;;;3.30;;
76826;SDS011;65788;52.284;20.890;2024-01-15T03:55:18;5.50;;;3.40;;
76826;SDS011;65788;52.284;20.890;2024-01-15T03:56:56;6.70;;;3.70;;
76826;SDS011;65788;52.284;20.890;2024-01-15T03:58:42;5.90;;;3.40;;
76826;SDS011;65788;52.284;20.890;2024-01-15T04:00:21;6.90;;;3.30;;
76826;SDS011;65788;52.284;20.890;2024-01-15T04:01:57;5.00;;;3.50;;
76826;SDS011;65788;52.284;20.890;2024-01-15T04:03:35;6.30;;;3.40;;
76826;SDS011;65788;52.284;20.890;2024-01-15T04:05:13;7.00;;;4.10;;
76826;SDS011;65788;52.284;20.890;2024-01-15T04:06:53;6.10;;;3.80;;
76826;SDS011;65788;52.284;20.890;2024-01-15T04:08:30;7.30;;;4.10;;
76826;SDS011;65788;52.284;20.890;2024-01-15T04:10:09;5.80;;;3.50;;
76826;SDS011;65788;52.284;20.890;2024-01-15T04:11:47;8.50;;;3.70;;
76826;SDS011;65788;52.284;20.890;2024-01-15T04:13:26;7.00;;;3.70;;
76826;SDS011;65788;52.284;20.890;2024-01-15T04:15:02;5.30;;;3.60;;
76826;SDS011;65788;52.284;20.890;2024-01-15T04:16:39;6.50;;;3.30;;
76826;SDS011;65788;52.284;20.890;2024-01-15T04:18:16;6.10;;;3.40;;
76826;SDS011;65788;52.284;20.890;2024-01-15T04:19:54;5.50;;;3.90;;
76826;SDS011;65788;52.284;20.890;2024-01-15T04:21:33;4.90;;;3.20;;
76826;SDS011;65788;52.284;20.890;2024-01-15T04:23:12;5.10;;;3.40;;
76826;SDS011;65788;52.284;20.890;2024-01-15T04:24:49;6.00;;;3.50;;
76826;SDS011;65788;52.284;20.890;2024-01-15T04:26:27;5.20;;;3.40;;
76826;SDS011;65788;52.284;20.890;2024-01-15T04:28:06;6.40;;;3.50;;
76826;SDS011;65788;52.284;20.890;2024-01-15T04:29:46;6.40;;;3.40;;
76826;SDS011;65788;52.284;20.890;2024-01-15T04:31:25;6.80;;;3.60;;
76826;SDS011;65788;52.284;20.890;2024-01-15T04:34:42;5.50;;;3.70;;
76826;SDS011;65788;52.284;20.890;2024-01-15T04:36:22;6.00;;;2.90;;
76826;SDS011;65788;52.284;20.890;2024-01-15T04:38:02;5.60;;;3.40;;
76826;SDS011;65788;52.284;20.890;2024-01-15T04:39:44;6.40;;;3.80;;
76826;SDS011;65788;52.284;20.890;2024-01-15T04:41:21;5.40;;;3.20;;
76826;SDS011;65788;52.284;20.890;2024-01-15T04:43:02;5.30;;;3.50;;
76826;SDS011;65788;52.284;20.890;2024-01-15T04:44:42;5.60;;;3.10;;
76826;SDS011;65788;52.284;20.890;2024-01-15T04:46:21;7.60;;;3.70;;
76826;SDS011;65788;52.284;20.890;2024-01-15T04:47:59;5.40;;;3.20;;
76826;SDS011;65788;52.284;20.890;2024-01-15T04:49:39;5.40;;;3.60;;
76826;SDS011;65788;52.284;20.890;2024-01-15T04:51:20;6.70;;;3.70;;
76826;SDS011;65788;52.284;20.890;2024-01-15T04:52:57;7.50;;;4.00;;
76826;SDS011;65788;52.284;20.890;2024-01-15T04:54:35;7.50;;;3.30;;
76826;SDS011;65788;52.284;20.890;2024-01-15T04:56:13;5.60;;;3.50;;
76826;SDS011;65788;52.284;20.890;2024-01-15T04:57:51;5.50;;;3.20;;
76826;SDS011;65788;52.284;20.890;2024-01-15T04:59:28;5.80;;;3.50;;
76826;SDS011;65788;52.284;20.890;2024-01-15T05:01:07;7.90;;;3.40;;
76826;SDS011;65788;52.284;20.890;2024-01-15T05:02:45;5.50;;;3.40;;
76826;SDS011;65788;52.284;20.890;2024-01-15T05:04:25;5.70;;;3.00;;
76826;SDS011;65788;52.284;20.890;2024-01-15T05:06:04;7.30;;;3.70;;
76826;SDS011;65788;52.284;20.890;2024-01-15T05:07:44;5.40;;;3.40;;
76826;SDS011;65788;52.284;20.890;2024-01-15T05:09:25;5.50;;;3.30;;
76826;SDS011;65788;52.284;20.890;2024-01-15T05:11:05;5.40;;;3.30;;
76826;SDS011;65788;52.284;20.890;2024-01-15T05:12:45;5.10;;;3.00;;
76826;SDS011;65788;52.284;20.890;2024-01-15T05:14:22;5.10;;;3.30;;
76826;SDS011;65788;52.284;20.890;2024-01-15T05:16:00;5.50;;;3.30;;
76826;SDS011;65788;52.284;20.890;2024-01-15T05:17:38;5.40;;;2.90;;
76826;SDS011;65788;52.284;20.890;2024-01-15T05:19:17;4.60;;;2.90;;
76826;SDS011;65788;52.284;20.890;2024-01-15T05:20:56;4.70;;;3.10;;
76826;SDS011;65788;52.284;20.890;2024-01-15T05:22:32;4.70;;;2.80;;
76826;SDS011;65788;52.284;20.890;2024-01-15T05:24:09;6.20;;;3.30;;
76826;SDS011;65788;52.284;20.890;2024-01-15T05:25:47;6.30;;;3.70;;
76826;SDS011;65788;52.284;20.890;2024-01-15T05:27:25;4.90;;;3.30;;
76826;SDS011;65788;52.284;20.890;2024-01-15T05:29:02;4.70;;;3.00;;
76826;SDS011;65788;52.284;20.890;2024-01-15T05:30:40;4.90;;;3.10;;
76826;SDS011;65788;52.284;20.890;2024-01-15T05:32:18;6.80;;;3.50;;
76826;SDS011;65788;52.284;20.890;2024-01-15T05:34:03;5.30;;;3.40;;
76826;SDS011;65788;52.284;20.890;2024-01-15T05:35:41;5.10;;;3.20;;
76826;SDS011;65788;52.284;20.890;2024-01-15T05:37:17;5.20;;;3.00;;
76826;SDS011;65788;52.284;20.890;2024-01-15T05:38:57;4.80;;;2.80;;
76826;SDS011;65788;52.284;20.890;2024-01-15T05:40:34;4.60;;;2.90;;
76826;SDS011;65788;52.284;20.890;2024-01-15T05:42:13;5.00;;;3.00;;
76826;SDS011;65788;52.284;20.890;2024-01-15T05:43:51;4.50;;;2.90;;
76826;SDS011;65788;52.284;20.890;2024-01-15T05:45:30;5.60;;;3.40;;
76826;SDS011;65788;52.284;20.890;2024-01-15T05:47:08;4.70;;;3.00;;
76826;SDS011;65788;52.284;20.890;2024-01-15T05:48:45;5.60;;;3.10;;
76826;SDS011;65788;52.284;20.890;2024-01-15T05:50:24;4.30;;;3.00;;
76826;SDS011;65788;52.284;20.890;2024-01-15T05:52:01;4.90;;;2.90;;
76826;SDS011;65788;52.284;20.890;2024-01-15T05:53:39;5.60;;;3.40;;
76826;SDS011;65788;52.284;20.890;2024-01-15T05:55:19;6.10;;;3.20;;
76826;SDS011;65788;52.284;20.890;2024-01-15T05:56:59;5.40;;;3.30;;
76826;SDS011;65788;52.284;20.890;2024-01-15T05:58:36;4.90;;;3.10;;
76826;SDS011;65788;52.284;20.890;2024-01-15T06:00:16;4.90;;;3.00;;
76826;SDS011;65788;52.284;20.890;2024-01-15T06:01:59;5.10;;;3.00;;
76826;SDS011;65788;52.284;20.890;2024-01-15T06:03:38;5.10;;;3.20;;
76826;SDS011;65788;52.284;20.890;2024-01-15T06:05:15;4.40;;;2.90;;
76826;SDS011;65788;52.284;20.890;2024-01-15T06:06:52;5.80;;;3.20;;
76826;SDS011;65788;52.284;20.890;2024-01-15T06:08:31;4.20;;;2.80;;
76826;SDS011;65788;52.284;20.890;2024-01-15T06:10:08;4.70;;;3.30;;
76826;SDS011;65788;52.284;20.890;2024-01-15T06:11:46;4.50;;;2.80;;
76826;SDS011;65788;52.284;20.890;2024-01-15T06:13:24;5.10;;;3.00;;
76826;SDS011;65788;52.284;20.890;2024-01-15T06:15:01;4.70;;;2.80;;
76826;SDS011;65788;52.284;20.890;2024-01-15T06:16:38;4.40;;;2.70;;
76826;SDS011;65788;52.284;20.890;2024-01-15T06:18:17;5.10;;;2.90;;
76826;SDS011;65788;52.284;20.890;2024-01-15T06:19:55;4.70;;;2.80;;
76826;SDS011;65788;52.284;20.890;2024-01-15T06:21:33;5.20;;;2.90;;
76826;SDS011;65788;52.284;20.890;2024-01-15T06:23:11;4.30;;;2.70;;
76826;SDS011;65788;52.284;20.890;2024-01-15T06:24:50;4.10;;;2.80;;
76826;SDS011;65788;52.284;20.890;2024-01-15T06:26:28;4.30;;;2.80;;
76826;SDS011;65788;52.284;20.890;2024-01-15T06:28:08;3.50;;;2.50;;
76826;SDS011;65788;52.284;20.890;2024-01-15T06:29:48;3.70;;;2.90;;
76826;SDS011;65788;52.284;20.890;2024-01-15T06:31:28;4.60;;;2.90;;
76826;SDS011;65788;52.284;20.890;2024-01-15T06:33:05;5.40;;;2.90;;
76826;SDS011;65788;52.284;20.890;2024-01-15T06:34:43;4.60;;;2.90;;
76826;SDS011;65788;52.284;20.890;2024-01-15T06:36:24;4.80;;;3.00;;
76826;SDS011;65788;52.284;20.890;2024-01-15T06:38:01;4.30;;;3.00;;
76826;SDS011;65788;52.284;20.890;2024-01-15T06:39:40;4.10;;;2.80;;
76826;SDS011;65788;52.284;20.890;2024-01-15T06:41:18;5.60;;;3.30;;
76826;SDS011;65788;52.284;20.890;2024-01-15T06:42:56;4.40;;;2.60;;
76826;SDS011;65788;52.284;20.890;2024-01-15T06:44:33;3.80;;;2.60;;
76826;SDS011;65788;52.284;20.890;2024-01-15T06:46:22;4.30;;;2.90;;
76826;SDS011;65788;52.284;20.890;2024-01-15T06:48:00;4.70;;;2.90;;
76826;SDS011;65788;52.284;20.890;2024-01-15T06:49:38;4.10;;;2.70;;
76826;SDS011;65788;52.284;20.890;2024-01-15T06:51:18;4.00;;;2.40;;
76826;SDS011;65788;52.284;20.890;2024-01-15T06:52:56;4.40;;;2.90;;
76826;SDS011;65788;52.284;20.890;2024-01-15T06:54:36;6.40;;;3.10;;
76826;SDS011;65788;52.284;20.890;2024-01-15T06:56:14;4.80;;;3.00;;
76826;SDS011;65788;52.284;20.890;2024-01-15T06:57:51;5.20;;;3.00;;
76826;SDS011;65788;52.284;20.890;2024-01-15T06:59:31;4.40;;;2.90;;
76826;SDS011;65788;52.284;20.890;2024-01-15T07:01:08;4.40;;;3.00;;
76826;SDS011;65788;52.284;20.890;2024-01-15T07:02:46;4.10;;;2.90;;
76826;SDS011;65788;52.284;20.890;2024-01-15T07:04:25;4.30;;;2.70;;
76826;SDS011;65788;52.284;20.890;2024-01-15T07:06:03;5.00;;;3.00;;
76826;SDS011;65788;52.284;20.890;2024-01-15T07:07:41;4.40;;;2.90;;
76826;SDS011;65788;52.284;20.890;2024-01-15T07:09:19;4.50;;;2.90;;
76826;SDS011;65788;52.284;20.890;2024-01-15T07:10:57;3.90;;;2.80;;
76826;SDS011;65788;52.284;20.890;2024-01-15T07:12:33;4.00;;;2.70;;
76826;SDS011;65788;52.284;20.890;2024-01-15T07:14:11;4.50;;;2.90;;
76826;SDS011;65788;52.284;20.890;2024-01-15T07:15:50;4.30;;;3.00;;
76826;SDS011;65788;52.284;20.890;2024-01-15T07:17:27;4.20;;;2.80;;
76826;SDS011;65788;52.284;20.890;2024-01-15T07:19:05;4.60;;;3.10;;
76826;SDS011;65788;52.284;20.890;2024-01-15T07:20:43;4.30;;;2.70;;
76826;SDS011;65788;52.284;20.890;2024-01-15T07:22:21;4.10;;;2.80;;
76826;SDS011;65788;52.284;20.890;2024-01-15T07:24:02;5.10;;;2.90;;
76826;SDS011;65788;52.284;20.890;2024-01-15T07:27:22;4.90;;;2.80;;
76826;SDS011;65788;52.284;20.890;2024-01-15T07:29:00;4.30;;;2.90;;
76826;SDS011;65788;52.284;20.890;2024-01-15T07:30:36;4.40;;;3.00;;
76826;SDS011;65788;52.284;20.890;2024-01-15T07:32:16;5.30;;;3.00;;
76826;SDS011;65788;52.284;20.890;2024-01-15T07:33:53;4.00;;;2.70;;
76826;SDS011;65788;52.284;20.890;2024-01-15T07:35:31;4.70;;;3.00;;
76826;SDS011;65788;52.284;20.890;2024-01-15T07:37:11;4.90;;;3.10;;
76826;SDS011;65788;52.284;20.890;2024-01-15T07:38:48;5.40;;;3.30;;
76826;SDS011;65788;52.284;20.890;2024-01-15T07:40:25;6.00;;;3.30;;
76826;SDS011;65788;52.284;20.890;2024-01-15T07:42:04;4.50;;;2.90;;
76826;SDS011;65788;52.284;20.890;2024-01-15T07:43:41;4.70;;;2.80;;
76826;SDS011;65788;52.284;20.890;2024-01-15T07:45:22;4.30;;;3.10;;
76826;SDS011;65788;52.284;20.890;2024-01-15T07:46:59;5.50;;;3.00;;
76826;SDS011;65788;52.284;20.890;2024-01-15T07:48:37;5.00;;;3.00;;
76826;SDS011;65788;52.284;20.890;2024-01-15T07:50:15;4.40;;;3.00;;
76826;SDS011;65788;52.284;20.890;2024-01-15T07:51:56;4.70;;;2.90;;
76826;SDS011;65788;52.284;20.890;2024-01-15T07:53:33;5.00;;;2.90;;
76826;SDS011;65788;52.284;20.890;2024-01-15T07:55:10;6.10;;;3.30;;
76826;SDS011;65788;52.284;20.890;2024-01-15T07:57:01;5.70;;;2.70;;
76826;SDS011;65788;52.284;20.890;2024-01-15T07:58:42;5.10;;;3.00;;
76826;SDS011;65788;52.284;20.890;2024-01-15T08:00:19;3.80;;;2.70;;
76826;SDS011;65788;52.284;20.890;2024-01-15T08:01:59;4.80;;;3.30;;
76826;SDS011;65788;52.284;20.890;2024-01-15T08:03:35;4.80;;;3.10;;
76826;SDS011;65788;52.284;20.890;2024-01-15T08:05:14;5.40;;;3.20;;
76826;SDS011;65788;52.284;20.890;2024-01-15T08:06:52;6.10;;;3.40;;
76826;SDS011;65788;52.284;20.890;2024-01-15T08:08:32;5.90;;;3.10;;
76826;SDS011;65788;52.284;20.890;2024-01-15T08:10:10;5.30;;;3.10;;
76826;SDS011;65788;52.284;20.890;2024-01-15T08:11:46;4.80;;;3.20;;
76826;SDS011;65788;52.284;20.890;2024-01-15T08:13:23;4.60;;;2.90;;
76826;SDS011;65788;52.284;20.890;2024-01-15T08:15:10;7.50;;;3.20;;
76826;SDS011;65788;52.284;20.890;2024-01-15T08:16:47;7.90;;;3.20;;
76826;SDS011;65788;52.284;20.890;2024-01-15T08:18:25;5.00;;;3.00;;
76826;SDS011;65788;52.284;20.890;2024-01-15T08:20:05;7.70;;;3.40;;
76826;SDS011;65788;52.284;20.890;2024-01-15T08:21:45;5.80;;;3.20;;
76826;SDS011;65788;52.284;20.890;2024-01-15T08:23:26;7.90;;;3.70;;
76826;SDS011;65788;52.284;20.890;2024-01-15T08:25:10;9.60;;;3.90;;
76826;SDS011;65788;52.284;20.890;2024-01-15T08:26:55;10.90;;;4.40;;
76826;SDS011;65788;52.284;20.890;2024-01-15T08:28:33;6.90;;;3.70;;
76826;SDS011;65788;52.284;20.890;2024-01-15T08:30:10;8.40;;;3.90;;
76826;SDS011;65788;52.284;20.890;2024-01-15T08:31:47;10.70;;;4.70;;
76826;SDS011;65788;52.284;20.890;2024-01-15T08:33:26;8.70;;;3.80;;
76826;SDS011;65788;52.284;20.890;2024-01-15T08:35:03;9.40;;;4.00;;
76826;SDS011;65788;52.284;20.890;2024-01-15T08:36:40;8.50;;;3.60;;
76826;SDS011;65788;52.284;20.890;2024-01-15T08:38:19;6.40;;;3.20;;
76826;SDS011;65788;52.284;20.890;2024-01-15T08:39:57;9.60;;;4.10;;
76826;SDS011;65788;52.284;20.890;2024-01-15T08:41:35;9.90;;;4.50;;
76826;SDS011;65788;52.284;20.890;2024-01-15T08:43:13;9.60;;;3.70;;
76826;SDS011;65788;52.284;20.890;2024-01-15T08:44:51;9.90;;;4.10;;
76826;SDS011;65788;52.284;20.890;2024-01-15T08:46:28;11.50;;;4.40;;
76826;SDS011;65788;52.284;20.890;2024-01-15T08:48:08;10.80;;;4.40;;
76826;SDS011;65788;52.284;20.890;2024-01-15T08:49:46;8.20;;;3.90;;
76826;SDS011;65788;52.284;20.890;2024-01-15T08:51:25;9.20;;;3.80;;
76826;SDS011;65788;52.284;20.890;2024-01-15T08:53:03;9.40;;;3.60;;
76826;SDS011;65788;52.284;20.890;2024-01-15T08:54:41;8.40;;;4.30;;
76826;SDS011;65788;52.284;20.890;2024-01-15T08:56:19;7.40;;;3.20;;
76826;SDS011;65788;52.284;20.890;2024-01-15T08:57:55;8.20;;;3.70;;
76826;SDS011;65788;52.284;20.890;2024-01-15T08:59:32;10.10;;;4.10;;
76826;SDS011;65788;52.284;20.890;2024-01-15T09:01:08;7.90;;;3.70;;
76826;SDS011;65788;52.284;20.890;2024-01-15T09:02:47;7.40;;;4.00;;
76826;SDS011;65788;52.284;20.890;2024-01-15T09:04:24;6.60;;;3.60;;
76826;SDS011;65788;52.284;20.890;2024-01-15T09:06:01;9.50;;;3.70;;
76826;SDS011;65788;52.284;20.890;2024-01-15T09:07:39;7.80;;;3.40;;
76826;SDS011;65788;52.284;20.890;2024-01-15T09:09:17;12.70;;;4.00;;
76826;SDS011;65788;52.284;20.890;2024-01-15T09:10:55;9.90;;;4.00;;
76826;SDS011;65788;52.284;20.890;2024-01-15T09:12:32;7.60;;;3.70;;
76826;SDS011;65788;52.284;20.890;2024-01-15T09:14:09;8.80;;;3.40;;
76826;SDS011;65788;52.284;20.890;2024-01-15T09:15:45;7.00;;;3.50;;
76826;SDS011;65788;52.284;20.890;2024-01-15T09:17:23;6.80;;;3.40;;
76826;SDS011;65788;52.284;20.890;2024-01-15T09:19:01;9.70;;;4.20;;
76826;SDS011;65788;52.284;20.890;2024-01-15T09:20:39;6.20;;;3.40;;
76826;SDS011;65788;52.284;20.890;2024-01-15T09:22:15;7.60;;;3.20;;
76826;SDS011;65788;52.284;20.890;2024-01-15T09:23:56;9.90;;;3.60;;
76826;SDS011;65788;52.284;20.890;2024-01-15T09:25:33;9.60;;;3.60;;
76826;SDS011;65788;52.284;20.890;2024-01-15T09:27:11;7.00;;;3.50;;
76826;SDS011;65788;52.284;20.890;2024-01-15T09:28:48;6.00;;;3.20;;
76826;SDS011;65788;52.284;20.890;2024-01-15T09:30:25;7.10;;;3.20;;
76826;SDS011;65788;52.284;20.890;2024-01-15T09:32:02;8.60;;;2.80;;
76826;SDS011;65788;52.284;20.890;2024-01-15T09:35:17;5.50;;;3.10;;
76826;SDS011;65788;52.284;20.890;2024-01-15T09:36:55;9.30;;;3.70;;
76826;SDS011;65788;52.284;20.890;2024-01-15T09:38:32;6.10;;;3.20;;
76826;SDS011;65788;52.284;20.890;2024-01-15T09:40:08;10.30;;;3.40;;
76826;SDS011;65788;52.284;20.890;2024-01-15T09:41:49;7.10;;;3.60;;
76826;SDS011;65788;52.284;20.890;2024-01-15T09:43:27;6.40;;;3.30;;
76826;SDS011;65788;52.284;20.890;2024-01-15T09:45:04;5.70;;;3.30;;
76826;SDS011;65788;52.284;20.890;2024-01-15T09:46:52;6.30;;;3.40;;
76826;SDS011;65788;52.284;20.890;2024-01-15T09:48:34;9.70;;;4.50;;
76826;SDS011;65788;52.284;20.890;2024-01-15T09:50:15;6.80;;;3.90;;
76826;SDS011;65788;52.284;20.890;2024-01-15T09:51:52;7.50;;;3.70;;
76826;SDS011;65788;52.284;20.890;2024-01-15T09:53:34;6.20;;;4.10;;